Time;durP1;ratioP1;P1;durP2;ratioP2;P2;SDS_P1;SDS_P2;PMS_P1;PMS_P2;Temp;Humidity;BMP_temperature;BMP_pressure;BME280_temperature;BME280_humidity;BME280_pressure;Samples;Min_cycle;Max_cycle;Signal;HPM_P1;HPM_P2
2022/11/23 00:00:33;;;;;;;8.20;4.55;;;4.20;71.20;;;;;;5083227;28;20043;-63
2022/11/23 00:02:59;;;;;;;6.63;3.65;;;4.20;71.20;;;;;;5077438;28;20084;-63
2022/11/23 00:05:27;;;;;;;10.25;3.85;;;4.20;71.20;;;;;;5089776;28;20127;-64
2022/11/23 00:07:53;;;;;;;7.85;3.72;;;4.20;71.20;;;;;;5087747;28;20046;-63
2022/11/23 00:10:20;;;;;;;6.53;3.60;;;4.20;71.10;;;;;;5093314;28;20016;-63
2022/11/23 00:12:46;;;;;;;8.23;4.10;;;4.10;71.10;;;;;;5083045;28;20023;-65
2022/11/23 00:15:14;;;;;;;6.95;3.80;;;4.10;71.00;;;;;;5090924;28;20059;-64
2022/11/23 00:17:39;;;;;;;10.60;3.45;;;4.10;70.90;;;;;;5082544;28;20033;-63
2022/11/23 00:20:07;;;;;;;7.80;3.97;;;4.10;71.10;;;;;;5011757;28;20024;-64
2022/11/23 00:22:33;;;;;;;7.05;4.35;;;4.00;71.30;;;;;;5081944;28;20512;-63
2022/11/23 00:24:59;;;;;;;13.57;5.70;;;4.00;71.60;;;;;;5087472;28;20025;-63
2022/11/23 00:27:24;;;;;;;13.13;5.65;;;4.00;71.60;;;;;;5090278;28;20055;-63
2022/11/23 00:29:50;;;;;;;12.05;5.93;;;4.00;71.80;;;;;;5092935;28;20024;-63
2022/11/23 00:32:16;;;;;;;14.45;6.97;;;4.00;71.80;;;;;;5076348;28;20033;-63
2022/11/23 00:34:41;;;;;;;16.73;6.65;;;4.00;71.90;;;;;;5085435;28;20025;-64
2022/11/23 00:37:08;;;;;;;16.10;6.55;;;4.00;72.00;;;;;;5072361;28;20054;-65
2022/11/23 00:39:33;;;;;;;13.95;6.75;;;4.00;72.00;;;;;;5079778;28;20088;-64
2022/11/23 00:41:59;;;;;;;13.77;6.63;;;4.00;71.90;;;;;;5088473;28;20029;-64
2022/11/23 00:44:25;;;;;;;17.50;7.93;;;4.00;71.90;;;;;;5085665;28;20032;-63
2022/11/23 00:46:50;;;;;;;15.20;7.22;;;4.00;71.80;;;;;;5092178;28;20028;-64
2022/11/23 00:49:16;;;;;;;15.82;6.80;;;4.00;71.60;;;;;;5083365;28;20029;-63
2022/11/23 00:51:42;;;;;;;14.95;5.72;;;4.00;71.60;;;;;;5084691;28;20086;-64
2022/11/23 00:54:08;;;;;;;11.52;5.80;;;4.00;71.60;;;;;;5083183;28;20028;-62
2022/11/23 00:56:34;;;;;;;12.10;6.30;;;4.00;71.70;;;;;;5078739;28;20060;-64
2022/11/23 00:59:01;;;;;;;11.60;5.40;;;3.90;71.70;;;;;;5072566;28;20123;-63
2022/11/23 01:01:32;;;;;;;18.90;6.45;;;3.90;71.70;;;;;;5077232;28;20032;-63
2022/11/23 01:04:00;;;;;;;12.98;5.70;;;3.90;71.70;;;;;;5081674;28;20025;-63
2022/11/23 01:06:28;;;;;;;11.63;5.65;;;3.90;71.70;;;;;;5081298;28;20437;-63
2022/11/23 01:09:01;;;;;;;12.35;4.90;;;3.90;71.70;;;;;;5075190;28;20088;-63
2022/11/23 01:11:28;;;;;;;8.45;4.18;;;3.90;71.80;;;;;;5090061;28;20488;-64
2022/11/23 01:13:54;;;;;;;10.38;4.60;;;3.90;71.90;;;;;;5091282;28;20071;-63
2022/11/23 01:16:27;;;;;;;9.05;4.50;;;3.90;71.90;;;;;;5081790;28;20020;-63
2022/11/23 01:18:58;;;;;;;7.70;3.45;;;3.90;71.90;;;;;;5084930;28;20020;-63
2022/11/23 01:21:26;;;;;;;9.45;4.15;;;3.90;72.00;;;;;;5077261;28;20032;-64
2022/11/23 01:23:52;;;;;;;7.65;4.15;;;3.90;72.00;;;;;;5077938;28;20021;-64
2022/11/23 01:26:18;;;;;;;9.90;4.18;;;3.90;72.00;;;;;;5084320;28;20066;-65
2022/11/23 01:28:44;;;;;;;8.68;4.18;;;3.90;72.10;;;;;;5084216;28;20032;-63
2022/11/23 01:31:13;;;;;;;6.03;3.50;;;3.90;72.10;;;;;;5085015;28;20029;-63
2022/11/23 01:33:41;;;;;;;7.15;3.40;;;3.90;72.20;;;;;;5091672;28;20714;-63
2022/11/23 01:36:12;;;;;;;11.10;3.83;;;3.90;72.30;;;;;;5092945;28;20062;-63
2022/11/23 01:38:39;;;;;;;8.85;3.63;;;4.00;72.60;;;;;;5089125;28;20067;-64
2022/11/23 01:41:06;;;;;;;5.70;3.35;;;4.00;72.60;;;;;;5090114;28;20044;-63
2022/11/23 01:43:32;;;;;;;6.70;3.22;;;4.00;72.60;;;;;;5076747;28;20043;-63
2022/11/23 01:45:59;;;;;;;9.43;4.47;;;4.00;72.50;;;;;;5080445;28;20040;-63
2022/11/23 01:48:31;;;;;;;10.10;3.75;;;4.00;72.50;;;;;;5079483;28;20087;-63
2022/11/23 01:50:59;;;;;;;8.93;3.42;;;4.10;72.60;;;;;;5078431;28;20028;-63
2022/11/23 01:53:27;;;;;;;8.80;3.65;;;4.00;72.50;;;;;;5079109;28;20037;-63
2022/11/23 01:55:55;;;;;;;6.70;3.55;;;4.00;72.50;;;;;;5092253;28;20036;-62
2022/11/23 01:58:24;;;;;;;8.75;4.03;;;4.10;72.60;;;;;;5080015;28;20106;-63
2022/11/23 02:00:50;;;;;;;8.70;3.67;;;4.10;72.60;;;;;;5076893;28;20031;-63
2022/11/23 02:03:17;;;;;;;11.05;4.20;;;4.10;72.60;;;;;;5073256;28;20032;-64
2022/11/23 02:05:49;;;;;;;10.93;3.50;;;4.20;72.70;;;;;;5076724;28;20120;-62
2022/11/23 02:08:17;;;;;;;9.02;3.05;;;4.20;73.40;;;;;;5082184;28;20035;-63
2022/11/23 02:10:43;;;;;;;7.80;3.20;;;4.20;72.70;;;;;;5075636;28;20465;-63
2022/11/23 02:13:10;;;;;;;11.65;3.28;;;4.20;72.70;;;;;;5074350;28;20043;-63
2022/11/23 02:15:37;;;;;;;7.45;3.03;;;4.30;72.80;;;;;;5085724;28;20043;-63
2022/11/23 02:18:08;;;;;;;8.43;3.05;;;4.20;72.60;;;;;;5078073;28;20032;-63
2022/11/23 02:20:33;;;;;;;8.23;3.10;;;4.30;72.50;;;;;;5089103;28;20021;-63
2022/11/23 02:23:19;;;;;;;9.45;3.13;;;4.30;72.50;;;;;;5090303;28;20047;-63
2022/11/23 02:25:44;;;;;;;5.25;2.88;;;4.30;72.70;;;;;;5086468;28;20070;-64
2022/11/23 02:28:13;;;;;;;5.70;3.40;;;4.30;72.60;;;;;;5067163;28;20029;-63
2022/11/23 02:30:40;;;;;;;6.05;3.10;;;4.30;72.60;;;;;;5094061;28;20024;-62
2022/11/23 02:33:06;;;;;;;7.38;3.50;;;4.30;72.50;;;;;;5078454;28;20060;-64
2022/11/23 02:35:33;;;;;;;7.82;3.50;;;4.30;72.40;;;;;;5077373;28;20036;-64
2022/11/23 02:38:05;;;;;;;7.25;3.30;;;4.30;72.40;;;;;;5083257;28;20446;-63
2022/11/23 02:40:33;;;;;;;10.07;3.83;;;4.30;72.40;;;;;;5089341;28;20020;-64
2022/11/23 02:42:59;;;;;;;9.93;3.72;;;4.30;72.40;;;;;;5087525;28;20050;-63
2022/11/23 02:45:34;;;;;;;9.73;3.45;;;4.20;72.30;;;;;;5075711;28;20474;-63
2022/11/23 02:47:59;;;;;;;7.75;3.42;;;4.30;72.40;;;;;;5086199;28;20094;-63
2022/11/23 02:50:25;;;;;;;5.40;3.58;;;4.30;72.40;;;;;;5071017;28;20032;-62
2022/11/23 02:52:51;;;;;;;5.55;3.03;;;4.20;72.30;;;;;;5082225;28;20036;-64
2022/11/23 02:55:16;;;;;;;7.25;3.25;;;4.20;72.40;;;;;;5075079;28;20052;-64
2022/11/23 02:57:42;;;;;;;5.88;3.47;;;4.20;72.30;;;;;;5086844;28;20056;-64
2022/11/23 03:00:08;;;;;;;7.25;3.53;;;4.20;72.40;;;;;;5088059;28;20048;-62
2022/11/23 03:02:34;;;;;;;10.85;3.83;;;4.20;72.40;;;;;;5077987;28;20024;-65
2022/11/23 03:05:00;;;;;;;9.00;3.63;;;4.20;72.50;;;;;;5083509;28;20035;-64
2022/11/23 03:07:25;;;;;;;7.80;3.63;;;4.20;72.40;;;;;;5093615;28;20028;-63
2022/11/23 03:09:51;;;;;;;7.25;3.78;;;4.20;73.10;;;;;;5087814;28;20035;-64
2022/11/23 03:12:16;;;;;;;6.70;3.80;;;4.20;72.40;;;;;;5083145;28;20028;-63
2022/11/23 03:14:42;;;;;;;5.93;3.50;;;4.20;72.50;;;;;;5085365;28;20048;-64
2022/11/23 03:17:08;;;;;;;6.60;4.00;;;4.20;72.50;;;;;;5084706;28;20050;-64
2022/11/23 03:19:33;;;;;;;16.27;4.30;;;4.20;72.50;;;;;;5087264;28;20024;-64
2022/11/23 03:21:59;;;;;;;7.43;4.15;;;4.20;72.40;;;;;;5087466;28;20028;-64
2022/11/23 03:24:25;;;;;;;7.72;4.13;;;4.20;72.30;;;;;;5090877;28;20028;-64
2022/11/23 03:26:50;;;;;;;8.70;3.50;;;4.20;72.30;;;;;;5077207;28;20045;-64
2022/11/23 03:29:16;;;;;;;6.68;3.75;;;4.20;72.30;;;;;;5088758;28;20054;-63
2022/11/23 03:31:42;;;;;;;9.68;3.30;;;4.20;72.40;;;;;;5085298;28;20029;-64
2022/11/23 03:34:08;;;;;;;10.65;3.90;;;4.20;72.40;;;;;;5083505;28;20039;-63
2022/11/23 03:36:34;;;;;;;9.30;3.97;;;4.20;72.40;;;;;;5084570;28;20702;-63
2022/11/23 03:39:00;;;;;;;8.15;3.88;;;4.20;72.50;;;;;;5108935;28;20044;-62
2022/11/23 03:41:25;;;;;;;7.20;4.00;;;4.20;72.70;;;;;;5086179;28;20063;-63
2022/11/23 03:43:51;;;;;;;9.88;4.07;;;4.20;72.80;;;;;;5069676;28;20047;-64
2022/11/23 03:46:17;;;;;;;7.43;4.50;;;4.20;72.80;;;;;;5083241;28;20017;-64
2022/11/23 03:48:43;;;;;;;10.55;4.35;;;4.20;72.70;;;;;;5089501;28;20115;-63
2022/11/23 03:51:08;;;;;;;8.80;4.07;;;4.20;72.60;;;;;;5087473;28;20028;-63
2022/11/23 03:53:34;;;;;;;9.93;4.88;;;4.20;72.60;;;;;;5091051;28;20032;-63
2022/11/23 03:55:59;;;;;;;11.68;4.68;;;4.20;72.60;;;;;;5087672;28;20036;-64
2022/11/23 03:58:25;;;;;;;12.15;4.50;;;4.20;72.60;;;;;;5088136;28;20033;-64
2022/11/23 04:00:51;;;;;;;10.52;5.00;;;4.20;72.60;;;;;;5078178;28;20021;-63
2022/11/23 04:03:17;;;;;;;14.10;4.65;;;4.20;72.60;;;;;;5083685;28;20035;-65
2022/11/23 04:05:42;;;;;;;7.55;4.38;;;4.20;72.60;;;;;;5079657;28;20511;-63
2022/11/23 04:08:08;;;;;;;10.10;4.63;;;4.20;72.70;;;;;;5073727;28;20025;-64
2022/11/23 04:10:34;;;;;;;11.00;5.03;;;4.20;72.80;;;;;;5079953;28;20035;-64
2022/11/23 04:13:01;;;;;;;11.60;4.72;;;4.20;72.90;;;;;;5098503;28;20085;-63
2022/11/23 04:15:27;;;;;;;12.40;5.35;;;4.20;72.90;;;;;;5090911;28;20046;-62
2022/11/23 04:17:54;;;;;;;10.02;4.82;;;4.20;73.00;;;;;;5079478;28;20511;-64
2022/11/23 04:20:19;;;;;;;7.32;4.32;;;4.20;73.10;;;;;;5001139;28;20364;-63
2022/11/23 04:22:45;;;;;;;9.95;4.00;;;4.30;73.10;;;;;;5094744;28;20054;-63
2022/11/23 04:25:11;;;;;;;7.95;4.47;;;4.30;73.10;;;;;;5090549;28;20025;-64
2022/11/23 04:27:36;;;;;;;10.32;4.38;;;4.30;73.20;;;;;;5096378;28;20020;-63
2022/11/23 04:30:03;;;;;;;9.57;4.45;;;4.30;73.20;;;;;;5079881;28;20029;-66
2022/11/23 04:32:29;;;;;;;9.82;4.47;;;4.30;73.20;;;;;;5087168;28;20029;-64
2022/11/23 04:34:54;;;;;;;10.95;4.30;;;4.30;73.30;;;;;;5085463;28;20034;-64
2022/11/23 04:37:20;;;;;;;11.05;4.43;;;4.40;73.40;;;;;;5083828;28;20032;-64
2022/11/23 04:39:46;;;;;;;10.82;4.93;;;4.40;73.40;;;;;;5086769;28;20074;-64
2022/11/23 04:42:12;;;;;;;8.52;4.45;;;4.40;73.50;;;;;;5078041;28;20078;-64
2022/11/23 04:44:37;;;;;;;8.18;4.15;;;4.40;73.50;;;;;;5069777;28;20469;-65
2022/11/23 04:47:03;;;;;;;6.35;4.22;;;4.40;73.50;;;;;;5081103;28;20052;-66
2022/11/23 04:49:29;;;;;;;9.07;4.25;;;4.50;73.50;;;;;;5075907;28;20021;-64
2022/11/23 04:51:55;;;;;;;6.78;4.35;;;4.50;73.50;;;;;;5077575;28;20043;-63
2022/11/23 04:54:20;;;;;;;8.20;4.10;;;4.50;73.50;;;;;;5068449;28;20041;-63
2022/11/23 04:56:46;;;;;;;7.05;4.22;;;4.50;73.50;;;;;;5087719;28;20029;-64
2022/11/23 04:59:12;;;;;;;7.63;3.70;;;4.50;73.50;;;;;;5081565;28;20457;-63
2022/11/23 05:01:37;;;;;;;13.60;5.35;;;4.60;73.60;;;;;;5094600;28;20472;-63
2022/11/23 05:04:03;;;;;;;10.70;4.45;;;4.60;73.50;;;;;;5081573;28;20051;-63
2022/11/23 05:06:29;;;;;;;6.15;3.90;;;4.60;73.50;;;;;;5086979;28;20023;-64
2022/11/23 05:08:54;;;;;;;7.10;4.03;;;4.60;73.40;;;;;;5078456;28;20054;-64
2022/11/23 05:11:20;;;;;;;8.57;3.78;;;4.60;73.40;;;;;;5085733;28;20028;-65
2022/11/23 05:13:46;;;;;;;7.75;3.90;;;4.70;73.50;;;;;;5082192;28;20118;-63
2022/11/23 05:16:11;;;;;;;18.30;4.85;;;4.70;73.40;;;;;;5078441;28;20552;-63
2022/11/23 05:18:37;;;;;;;7.63;4.18;;;4.70;73.50;;;;;;5076686;28;20054;-62
2022/11/23 05:21:03;;;;;;;6.40;4.15;;;4.70;73.50;;;;;;5080739;28;20052;-64
2022/11/23 05:23:28;;;;;;;6.60;3.78;;;4.70;73.50;;;;;;5079370;28;20043;-63
2022/11/23 05:25:54;;;;;;;9.13;3.95;;;4.70;73.50;;;;;;5078287;28;20043;-64
2022/11/23 05:28:20;;;;;;;7.45;4.15;;;4.70;73.50;;;;;;5085694;28;20039;-63
2022/11/23 05:30:46;;;;;;;5.45;3.75;;;4.80;73.50;;;;;;5082486;28;20084;-64
2022/11/23 05:33:12;;;;;;;6.22;4.00;;;4.80;73.50;;;;;;5080428;28;20063;-63
2022/11/23 05:35:38;;;;;;;8.30;3.72;;;4.80;73.50;;;;;;5075495;28;20995;-65
2022/11/23 05:38:04;;;;;;;11.73;4.05;;;4.80;73.60;;;;;;5091255;28;20081;-64
2022/11/23 05:40:30;;;;;;;13.25;6.63;;;4.80;73.50;;;;;;5084274;28;20098;-63
2022/11/23 05:42:57;;;;;;;10.32;5.88;;;4.80;73.60;;;;;;5080574;28;20048;-64
2022/11/23 05:45:24;;;;;;;8.85;4.72;;;4.90;73.70;;;;;;5078448;28;20035;-63
2022/11/23 05:47:54;;;;;;;7.10;4.22;;;4.90;73.60;;;;;;5079181;28;20206;-64
2022/11/23 05:50:22;;;;;;;10.27;4.80;;;4.90;73.60;;;;;;5080200;28;20028;-65
2022/11/23 05:52:47;;;;;;;8.95;4.95;;;4.90;73.50;;;;;;5085710;28;20017;-64
2022/11/23 05:55:22;;;;;;;9.38;5.15;;;4.90;73.50;;;;;;5076716;28;20032;-63
2022/11/23 05:57:48;;;;;;;8.98;4.30;;;4.90;73.60;;;;;;5080821;28;20097;-64
2022/11/23 06:00:14;;;;;;;9.73;4.30;;;4.90;73.50;;;;;;5078993;28;20020;-64
2022/11/23 06:02:40;;;;;;;12.70;5.78;;;5.00;73.50;;;;;;5074009;28;20028;-64
2022/11/23 06:05:06;;;;;;;13.93;7.15;;;5.00;73.50;;;;;;5072105;28;20088;-63
2022/11/23 06:07:32;;;;;;;14.35;7.28;;;4.90;73.40;;;;;;5087450;28;20516;-63
2022/11/23 06:09:58;;;;;;;23.73;8.90;;;5.00;73.40;;;;;;5086175;28;20031;-64
2022/11/23 06:12:24;;;;;;;17.65;7.82;;;5.00;73.40;;;;;;5080406;28;20028;-63
2022/11/23 06:14:50;;;;;;;18.38;7.82;;;5.00;73.50;;;;;;5079803;28;20119;-64
2022/11/23 06:17:15;;;;;;;14.63;6.82;;;5.00;73.50;;;;;;5081583;28;20024;-63
2022/11/23 06:19:41;;;;;;;9.80;5.72;;;5.00;73.40;;;;;;4968851;28;20032;-62
2022/11/23 06:22:07;;;;;;;11.05;5.20;;;5.00;73.50;;;;;;5089450;28;20028;-63
2022/11/23 06:24:33;;;;;;;9.13;5.22;;;5.00;73.40;;;;;;5081208;28;20029;-64
2022/11/23 06:26:58;;;;;;;11.02;5.90;;;5.00;73.50;;;;;;5076467;28;20048;-63
2022/11/23 06:29:24;;;;;;;9.73;5.60;;;5.00;73.50;;;;;;5069005;28;20024;-64
2022/11/23 06:31:50;;;;;;;11.02;6.05;;;5.00;73.40;;;;;;5079217;28;20029;-63
2022/11/23 06:34:15;;;;;;;12.98;5.88;;;5.00;73.40;;;;;;5082780;28;20024;-65
2022/11/23 06:36:42;;;;;;;12.15;5.78;;;5.10;73.50;;;;;;5075835;28;20025;-64
2022/11/23 06:39:08;;;;;;;9.98;5.90;;;5.10;73.50;;;;;;5086940;28;20087;-63
2022/11/23 06:41:34;;;;;;;11.95;6.72;;;5.10;73.40;;;;;;5077082;28;20059;-64
2022/11/23 06:44:00;;;;;;;8.73;4.93;;;5.10;73.40;;;;;;5073773;28;20028;-63
2022/11/23 06:46:26;;;;;;;12.18;5.65;;;5.10;73.40;;;;;;5077736;28;20028;-64
2022/11/23 06:48:51;;;;;;;14.45;5.70;;;5.10;73.50;;;;;;5082056;28;20489;-63
2022/11/23 06:51:17;;;;;;;12.52;5.93;;;5.10;73.50;;;;;;5079965;28;20698;-64
2022/11/23 06:53:43;;;;;;;13.30;6.22;;;5.20;73.50;;;;;;5077447;28;20021;-64
2022/11/23 06:56:08;;;;;;;11.77;6.15;;;5.10;73.50;;;;;;5083260;28;20039;-64
2022/11/23 06:58:34;;;;;;;10.32;5.57;;;5.20;73.50;;;;;;5079637;28;20033;-63
2022/11/23 07:01:02;;;;;;;9.70;5.10;;;5.20;74.20;;;;;;5079509;28;20085;-63
2022/11/23 07:03:28;;;;;;;9.23;5.22;;;5.20;73.40;;;;;;5074188;28;20021;-63
2022/11/23 07:05:53;;;;;;;9.63;5.72;;;5.20;73.40;;;;;;5079118;28;20028;-63
2022/11/23 07:08:19;;;;;;;13.05;5.80;;;5.20;73.40;;;;;;5079038;28;20029;-66
2022/11/23 07:10:45;;;;;;;12.25;7.40;;;5.20;73.40;;;;;;5082245;28;20028;-66
2022/11/23 07:13:11;;;;;;;13.45;8.23;;;5.20;73.60;;;;;;5080293;28;20114;-66
2022/11/23 07:15:38;;;;;;;16.98;8.40;;;5.20;73.70;;;;;;5074471;28;20064;-66
2022/11/23 07:18:04;;;;;;;15.50;7.60;;;5.20;73.70;;;;;;5081221;28;20096;-66
2022/11/23 07:20:30;;;;;;;14.43;7.93;;;5.30;73.80;;;;;;5087631;28;20037;-66
2022/11/23 07:23:00;;;;;;;17.00;8.85;;;5.30;73.80;;;;;;5080365;28;20024;-66
2022/11/23 07:25:27;;;;;;;15.88;9.02;;;5.30;73.80;;;;;;5084298;28;20025;-67
2022/11/23 07:27:58;;;;;;;14.05;8.55;;;5.40;73.80;;;;;;5079974;28;20025;-65
2022/11/23 07:30:24;;;;;;;18.75;8.82;;;5.40;73.80;;;;;;5079303;28;20059;-64
2022/11/23 07:32:51;;;;;;;16.25;7.97;;;5.40;73.80;;;;;;5074156;28;20055;-67
2022/11/23 07:35:18;;;;;;;14.82;8.70;;;5.50;74.50;;;;;;5082714;28;20599;-66
2022/11/23 07:37:44;;;;;;;19.60;10.00;;;5.50;73.70;;;;;;5089664;28;20500;-65
2022/11/23 07:40:10;;;;;;;20.23;10.48;;;5.50;73.70;;;;;;5080785;28;20028;-66
2022/11/23 07:42:36;;;;;;;20.00;9.60;;;5.50;73.70;;;;;;5074365;28;20107;-65
2022/11/23 07:45:03;;;;;;;16.98;7.95;;;5.60;73.80;;;;;;5081642;28;20042;-66
2022/11/23 07:47:28;;;;;;;19.25;7.47;;;5.60;73.80;;;;;;5082772;28;20044;-66
2022/11/23 07:49:54;;;;;;;12.60;7.10;;;5.70;73.70;;;;;;5085343;28;20016;-67
2022/11/23 07:52:20;;;;;;;16.13;7.22;;;5.70;73.70;;;;;;5084441;28;20137;-66
2022/11/23 07:54:45;;;;;;;16.35;6.93;;;5.70;73.70;;;;;;5080872;28;20033;-66
2022/11/23 07:57:11;;;;;;;14.27;6.78;;;5.80;73.60;;;;;;5084035;28;20031;-66
2022/11/23 07:59:37;;;;;;;15.20;6.68;;;5.80;73.60;;;;;;5070133;28;20502;-64
2022/11/23 08:02:02;;;;;;;16.27;7.05;;;5.90;73.60;;;;;;5082385;28;20048;-66
2022/11/23 08:04:29;;;;;;;14.32;6.80;;;5.90;73.60;;;;;;5091407;28;20020;-66
2022/11/23 08:06:55;;;;;;;11.30;6.18;;;5.90;73.60;;;;;;5081116;28;20121;-65
2022/11/23 08:09:21;;;;;;;14.73;6.75;;;6.00;73.50;;;;;;5099302;28;20028;-65
2022/11/23 08:11:47;;;;;;;15.10;6.25;;;6.00;73.50;;;;;;5081563;28;20032;-65
2022/11/23 08:14:13;;;;;;;14.63;6.22;;;6.00;73.30;;;;;;5083657;28;20028;-65
2022/11/23 08:16:38;;;;;;;11.43;6.80;;;6.10;73.40;;;;;;5089128;28;20025;-67
2022/11/23 08:19:04;;;;;;;13.18;6.35;;;6.10;73.40;;;;;;5084524;28;20491;-66
2022/11/23 08:21:30;;;;;;;11.65;6.30;;;6.20;73.30;;;;;;5090464;28;20392;-65
2022/11/23 08:23:55;;;;;;;12.73;6.32;;;6.20;73.30;;;;;;5094186;28;20021;-67
2022/11/23 08:26:21;;;;;;;12.90;6.90;;;6.30;73.20;;;;;;5082271;28;20035;-65
2022/11/23 08:28:47;;;;;;;22.40;13.68;;;6.40;73.30;;;;;;5074478;28;20035;-67
2022/11/23 08:31:14;;;;;;;18.10;10.23;;;6.40;73.40;;;;;;5084958;28;20039;-66
2022/11/23 08:33:40;;;;;;;12.45;7.85;;;6.50;73.50;;;;;;5087348;28;20047;-67
2022/11/23 08:36:07;;;;;;;16.42;7.35;;;6.60;73.40;;;;;;5076441;28;20086;-66
2022/11/23 08:38:33;;;;;;;18.67;8.18;;;6.70;73.20;;;;;;5075561;28;20056;-66
2022/11/23 08:41:00;;;;;;;19.23;9.75;;;6.80;73.00;;;;;;5084572;28;20031;-66
2022/11/23 08:43:27;;;;;;;22.48;11.27;;;6.80;72.80;;;;;;5083061;28;20028;-66
2022/11/23 08:45:54;;;;;;;20.15;10.68;;;6.90;72.60;;;;;;5088656;28;20486;-66
2022/11/23 08:48:20;;;;;;;22.08;11.27;;;7.00;72.50;;;;;;5081248;28;20053;-65
2022/11/23 08:50:46;;;;;;;24.33;12.15;;;7.00;72.40;;;;;;5088027;28;20393;-65
2022/11/23 08:53:11;;;;;;;26.15;11.88;;;7.00;72.40;;;;;;5072869;28;20013;-66
2022/11/23 08:55:37;;;;;;;21.92;10.75;;;7.00;72.50;;;;;;5085859;28;20063;-64
2022/11/23 08:58:03;;;;;;;20.60;10.45;;;7.10;72.50;;;;;;5089993;28;20032;-65
2022/11/23 09:00:30;;;;;;;18.20;10.07;;;7.10;72.60;;;;;;5092250;28;20045;-66
2022/11/23 09:02:57;;;;;;;18.85;10.18;;;7.20;72.70;;;;;;5088875;28;20096;-66
2022/11/23 09:05:24;;;;;;;18.80;10.02;;;7.30;72.90;;;;;;5087501;28;20046;-66
2022/11/23 09:07:49;;;;;;;18.50;9.82;;;7.40;73.00;;;;;;5105537;28;20053;-66
2022/11/23 09:10:15;;;;;;;21.20;9.80;;;7.50;72.90;;;;;;5089945;28;20049;-66
2022/11/23 09:12:41;;;;;;;19.20;9.68;;;7.60;72.70;;;;;;5084085;28;20070;-66
2022/11/23 09:15:07;;;;;;;19.08;8.73;;;7.70;72.60;;;;;;5078195;28;20040;-66
2022/11/23 09:17:33;;;;;;;19.52;8.98;;;7.90;72.40;;;;;;5073894;28;20051;-66
2022/11/23 09:19:59;;;;;;;15.18;8.95;;;8.00;72.20;;;;;;5082727;28;20029;-66
2022/11/23 09:22:25;;;;;;;16.38;9.52;;;8.10;72.10;;;;;;5080134;28;20031;-65
2022/11/23 09:24:52;;;;;;;15.07;9.07;;;8.20;71.90;;;;;;5094380;28;20053;-65
2022/11/23 09:27:18;;;;;;;13.75;7.32;;;8.30;71.80;;;;;;5082182;28;20119;-65
2022/11/23 09:29:44;;;;;;;16.30;6.95;;;8.40;71.70;;;;;;5079646;28;20040;-66
2022/11/23 09:32:09;;;;;;;20.20;7.65;;;8.50;71.60;;;;;;5075728;28;20033;-67
2022/11/23 09:34:35;;;;;;;16.80;7.43;;;8.60;71.20;;;;;;5077977;28;20123;-66
2022/11/23 09:37:01;;;;;;;25.63;7.75;;;8.60;71.20;;;;;;5084956;28;20036;-65
2022/11/23 09:39:26;;;;;;;15.30;6.78;;;8.70;71.10;;;;;;5071575;28;20032;-66
2022/11/23 09:42:01;;;;;;;12.48;6.60;;;8.80;71.00;;;;;;5080070;28;20032;-64
2022/11/23 09:44:34;;;;;;;12.15;6.78;;;8.80;70.80;;;;;;5085145;28;20017;-65
2022/11/23 09:47:18;;;;;;;12.32;6.80;;;8.90;70.90;;;;;;5082077;28;20375;-65
2022/11/23 09:50:08;;;;;;;15.10;7.53;;;9.00;70.30;;;;;;5082918;28;20127;-65
2022/11/23 09:52:36;;;;;;;12.00;6.20;;;9.10;70.30;;;;;;5081183;28;20504;-65
2022/11/23 09:55:30;;;;;;;13.50;7.00;;;9.20;70.70;;;;;;5081790;28;20427;-66
2022/11/23 09:58:01;;;;;;;14.15;6.18;;;9.30;70.40;;;;;;5066593;28;20066;-65
2022/11/23 10:00:35;;;;;;;13.80;6.90;;;9.40;70.40;;;;;;5081848;28;20124;-66
2022/11/23 10:03:03;;;;;;;14.38;6.55;;;9.40;70.30;;;;;;5074621;28;20042;-65
2022/11/23 10:05:36;;;;;;;11.75;6.25;;;9.60;70.40;;;;;;5076052;28;20400;-65
2022/11/23 10:08:09;;;;;;;11.40;6.00;;;9.60;70.20;;;;;;5082805;28;20021;-66
2022/11/23 10:10:44;;;;;;;8.48;6.13;;;9.70;70.10;;;;;;5074529;28;20017;-65
2022/11/23 10:13:26;;;;;;;11.80;6.03;;;9.80;70.10;;;;;;5067357;28;20020;-65
2022/11/23 10:16:01;;;;;;;12.27;6.60;;;9.90;69.60;;;;;;5075849;28;20060;-67
2022/11/23 10:18:36;;;;;;;11.40;6.38;;;10.00;69.50;;;;;;5082438;28;20029;-65
2022/11/23 10:21:09;;;;;;;8.32;5.53;;;10.00;69.40;;;;;;5084392;28;20063;-66
2022/11/23 10:24:01;;;;;;;10.63;5.60;;;10.10;69.40;;;;;;5090752;28;20028;-66
2022/11/23 10:26:35;;;;;;;11.82;5.82;;;10.10;69.10;;;;;;5087806;28;20029;-66
2022/11/23 10:29:24;;;;;;;9.95;5.82;;;10.20;69.50;;;;;;5068063;28;20443;-66
2022/11/23 10:31:51;;;;;;;11.77;5.75;;;10.30;68.80;;;;;;5081795;28;20032;-65
2022/11/23 10:34:36;;;;;;;9.57;5.70;;;10.40;69.40;;;;;;5087108;28;20028;-66
2022/11/23 10:37:01;;;;;;;12.68;5.47;;;10.50;69.40;;;;;;5072467;28;20514;-66
2022/11/23 10:39:27;;;;;;;10.93;5.40;;;10.50;69.40;;;;;;5071483;28;20084;-65
2022/11/23 10:42:00;;;;;;;13.48;6.32;;;10.60;69.40;;;;;;5077165;28;20036;-65
2022/11/23 10:44:35;;;;;;;12.20;5.78;;;10.70;69.00;;;;;;5088057;28;20040;-66
2022/11/23 10:47:01;;;;;;;9.25;5.30;;;10.80;68.90;;;;;;5080744;28;20035;-66
2022/11/23 10:49:31;;;;;;;10.23;5.10;;;10.90;69.00;;;;;;5078832;28;20139;-65
2022/11/23 10:51:59;;;;;;;10.10;5.82;;;11.00;68.70;;;;;;5079158;28;20037;-66
2022/11/23 10:54:34;;;;;;;12.13;5.60;;;11.10;68.50;;;;;;5098734;28;20321;-65
2022/11/23 10:57:18;;;;;;;11.82;5.85;;;11.10;68.10;;;;;;5075816;28;20120;-66
2022/11/23 11:00:25;;;;;;;10.45;5.30;;;11.20;68.20;;;;;;5087575;28;20424;-65
2022/11/23 11:02:56;;;;;;;11.15;5.40;;;11.30;67.60;;;;;;5066979;28;20383;-66
2022/11/23 11:05:37;;;;;;;10.40;5.05;;;11.40;68.20;;;;;;5081864;28;20024;-65
2022/11/23 11:08:13;;;;;;;11.52;4.63;;;11.40;67.80;;;;;;5090604;28;20087;-66
2022/11/23 11:10:42;;;;;;;11.50;5.35;;;11.50;67.70;;;;;;5090921;28;20134;-66
2022/11/23 11:13:20;;;;;;;15.15;4.70;;;11.60;67.90;;;;;;5084249;28;20016;-67
2022/11/23 11:15:51;;;;;;;8.60;5.22;;;11.70;67.00;;;;;;5085760;28;20092;-67
2022/11/23 11:18:17;;;;;;;11.68;5.50;;;11.70;67.30;;;;;;5089130;28;20083;-65
2022/11/23 11:20:44;;;;;;;12.32;4.78;;;11.80;67.40;;;;;;5080055;28;20037;-64
2022/11/23 11:23:19;;;;;;;10.02;5.20;;;11.90;67.40;;;;;;5087679;28;20047;-66
2022/11/23 11:25:46;;;;;;;12.75;5.10;;;11.90;67.10;;;;;;5089841;28;20016;-66
2022/11/23 11:28:25;;;;;;;19.90;4.72;;;12.00;67.00;;;;;;5085614;28;20020;-66
2022/11/23 11:31:12;;;;;;;11.35;4.50;;;12.00;66.60;;;;;;5072944;28;20028;-66
2022/11/23 11:34:10;;;;;;;9.18;4.60;;;12.10;66.40;;;;;;5090291;28;20044;-66
2022/11/23 11:37:02;;;;;;;10.98;4.43;;;12.20;66.00;;;;;;5092930;28;20103;-66
2022/11/23 11:39:34;;;;;;;10.70;4.70;;;12.20;66.40;;;;;;5067325;28;20036;-66
2022/11/23 11:42:03;;;;;;;8.32;4.57;;;12.30;66.40;;;;;;5083365;28;20384;-65
2022/11/23 11:44:33;;;;;;;10.52;4.82;;;12.40;66.30;;;;;;5084181;28;20379;-66
2022/11/23 11:47:12;;;;;;;9.52;5.15;;;12.40;65.80;;;;;;5074740;28;20025;-67
2022/11/23 11:49:43;;;;;;;10.00;4.70;;;12.40;65.40;;;;;;5077012;28;20049;-67
2022/11/23 11:52:14;;;;;;;12.30;4.53;;;12.50;65.40;;;;;;5091483;28;20788;-66
2022/11/23 11:54:48;;;;;;;8.90;4.38;;;12.50;65.40;;;;;;5090838;28;20427;-65
2022/11/23 11:57:22;;;;;;;8.98;3.80;;;12.50;64.60;;;;;;5076079;28;20039;-67
2022/11/23 11:59:52;;;;;;;6.68;3.47;;;12.60;65.10;;;;;;5079241;28;20021;-65
2022/11/23 12:02:32;;;;;;;10.05;3.20;;;12.60;65.00;;;;;;5084058;28;20039;-65
2022/11/23 12:05:23;;;;;;;6.85;2.80;;;12.60;64.20;;;;;;5097824;28;20102;-66
2022/11/23 12:08:00;;;;;;;7.72;2.53;;;12.70;63.40;;;;;;5078496;28;20137;-67
2022/11/23 12:10:35;;;;;;;6.35;2.28;;;12.70;63.90;;;;;;5072939;28;20020;-65
2022/11/23 12:13:01;;;;;;;6.68;3.00;;;12.80;63.80;;;;;;5080507;28;20033;-67
2022/11/23 12:15:41;;;;;;;8.38;2.55;;;12.80;63.90;;;;;;5076931;28;20047;-67
2022/11/23 12:18:22;;;;;;;5.93;2.65;;;12.90;63.40;;;;;;5070524;28;20489;-65
2022/11/23 12:21:07;;;;;;;7.22;2.85;;;13.00;63.30;;;;;;5081849;28;20020;-67
2022/11/23 12:24:14;;;;;;;6.30;2.17;;;13.10;62.70;;;;;;5081336;28;20024;-65
2022/11/23 12:27:04;;;;;;;6.20;2.33;;;13.20;62.20;;;;;;5082603;28;20081;-65
2022/11/23 12:29:39;;;;;;;5.38;2.05;;;13.30;62.20;;;;;;5076753;28;20064;-65
2022/11/23 12:32:14;;;;;;;;;;;13.30;60.90;;;;;;5075779;28;20056;-65
2022/11/23 12:35:10;;;;;;;5.10;1.70;;;13.40;62.40;;;;;;5075034;28;19916;-64
2022/11/23 12:37:58;;;;;;;4.20;2.22;;;13.40;60.50;;;;;;5082934;28;20020;-65
2022/11/23 12:40:32;;;;;;;7.55;2.00;;;13.50;60.60;;;;;;5075196;28;20074;-64
2022/11/23 12:43:11;;;;;;;4.72;1.73;;;13.50;59.90;;;;;;5078388;28;20039;-65
2022/11/23 12:45:52;;;;;;;9.15;1.95;;;13.40;59.40;;;;;;5074206;28;20032;-66
2022/11/23 12:48:28;;;;;;;5.13;1.80;;;13.50;58.40;;;;;;5079328;28;20059;-64
2022/11/23 12:51:15;;;;;;;6.72;2.97;;;13.40;58.80;;;;;;5098987;28;20091;-64
2022/11/23 12:53:59;;;;;;;5.95;2.65;;;13.40;58.20;;;;;;5072134;28;20071;-65
2022/11/23 12:56:49;;;;;;;6.57;2.03;;;13.40;58.00;;;;;;5087125;28;20059;-65